sensor_id;sensor_type;location;lat;lon;timestamp;P1;durP1;ratioP1;P2;durP2;ratioP2
33421;SDS011;19763;55.798;37.782;2022-08-03T00:00:54;8.85;;;7.95;;
33421;SDS011;19763;55.798;37.782;2022-08-03T00:03:20;13.40;;;8.95;;
33421;SDS011;19763;55.798;37.782;2022-08-03T00:05:46;11.80;;;9.02;;
33421;SDS011;19763;55.798;37.782;2022-08-03T00:08:11;11.15;;;8.52;;
33421;SDS011;19763;55.798;37.782;2022-08-03T00:10:37;13.02;;;9.40;;
33421;SDS011;19763;55.798;37.782;2022-08-03T00:13:03;15.65;;;9.23;;
33421;SDS011;19763;55.798;37.782;2022-08-03T00:15:29;13.00;;;8.90;;
33421;SDS011;19763;55.798;37.782;2022-08-03T00:17:54;13.60;;;8.55;;
33421;SDS011;19763;55.798;37.782;2022-08-03T00:20:20;12.68;;;8.98;;
33421;SDS011;19763;55.798;37.782;2022-08-03T00:22:46;12.15;;;9.35;;
33421;SDS011;19763;55.798;37.782;2022-08-03T00:25:11;12.75;;;9.63;;
33421;SDS011;19763;55.798;37.782;2022-08-03T00:27:37;14.35;;;9.63;;
33421;SDS011;19763;55.798;37.782;2022-08-03T00:30:03;12.98;;;9.80;;
33421;SDS011;19763;55.798;37.782;2022-08-03T00:32:29;13.90;;;8.95;;
33421;SDS011;19763;55.798;37.782;2022-08-03T00:34:55;13.07;;;8.73;;
33421;SDS011;19763;55.798;37.782;2022-08-03T00:37:20;10.55;;;8.70;;
33421;SDS011;19763;55.798;37.782;2022-08-03T00:39:46;11.77;;;8.70;;
33421;SDS011;19763;55.798;37.782;2022-08-03T00:42:12;8.98;;;7.90;;
33421;SDS011;19763;55.798;37.782;2022-08-03T00:44:38;10.30;;;8.65;;
33421;SDS011;19763;55.798;37.782;2022-08-03T00:47:05;11.02;;;8.77;;
33421;SDS011;19763;55.798;37.782;2022-08-03T00:49:31;12.60;;;8.75;;
33421;SDS011;19763;55.798;37.782;2022-08-03T00:51:58;12.60;;;8.25;;
33421;SDS011;19763;55.798;37.782;2022-08-03T00:54:24;10.10;;;7.93;;
33421;SDS011;19763;55.798;37.782;2022-08-03T00:56:50;10.98;;;8.25;;
33421;SDS011;19763;55.798;37.782;2022-08-03T00:59:16;10.63;;;8.60;;
33421;SDS011;19763;55.798;37.782;2022-08-03T01:01:42;10.73;;;7.53;;
33421;SDS011;19763;55.798;37.782;2022-08-03T01:04:08;10.75;;;8.38;;
33421;SDS011;19763;55.798;37.782;2022-08-03T01:06:42;9.00;;;7.85;;
33421;SDS011;19763;55.798;37.782;2022-08-03T01:12:03;12.32;;;8.80;;
33421;SDS011;19763;55.798;37.782;2022-08-03T01:14:40;11.27;;;9.60;;
33421;SDS011;19763;55.798;37.782;2022-08-03T01:17:18;12.30;;;8.85;;
33421;SDS011;19763;55.798;37.782;2022-08-03T01:25:46;11.43;;;8.65;;
33421;SDS011;19763;55.798;37.782;2022-08-03T01:31:28;9.25;;;8.20;;
33421;SDS011;19763;55.798;37.782;2022-08-03T01:34:00;11.70;;;8.40;;
33421;SDS011;19763;55.798;37.782;2022-08-03T01:36:38;11.77;;;9.13;;
33421;SDS011;19763;55.798;37.782;2022-08-03T01:39:07;12.65;;;8.65;;
33421;SDS011;19763;55.798;37.782;2022-08-03T01:41:41;14.82;;;9.65;;
33421;SDS011;19763;55.798;37.782;2022-08-03T01:44:12;14.98;;;9.00;;
33421;SDS011;19763;55.798;37.782;2022-08-03T01:46:39;10.07;;;8.68;;
33421;SDS011;19763;55.798;37.782;2022-08-03T01:49:06;10.32;;;9.02;;
33421;SDS011;19763;55.798;37.782;2022-08-03T01:51:34;10.18;;;8.98;;
33421;SDS011;19763;55.798;37.782;2022-08-03T01:54:05;11.90;;;9.20;;
33421;SDS011;19763;55.798;37.782;2022-08-03T01:56:34;12.25;;;8.60;;
33421;SDS011;19763;55.798;37.782;2022-08-03T01:59:02;11.57;;;8.82;;
33421;SDS011;19763;55.798;37.782;2022-08-03T02:01:28;16.70;;;9.00;;
33421;SDS011;19763;55.798;37.782;2022-08-03T02:03:56;10.30;;;8.38;;
33421;SDS011;19763;55.798;37.782;2022-08-03T02:06:23;12.95;;;8.95;;
33421;SDS011;19763;55.798;37.782;2022-08-03T02:08:50;15.50;;;8.55;;
33421;SDS011;19763;55.798;37.782;2022-08-03T02:11:18;9.18;;;8.27;;
33421;SDS011;19763;55.798;37.782;2022-08-03T02:13:44;15.25;;;8.77;;
33421;SDS011;19763;55.798;37.782;2022-08-03T02:16:11;9.90;;;8.90;;
33421;SDS011;19763;55.798;37.782;2022-08-03T02:18:39;12.77;;;9.25;;
33421;SDS011;19763;55.798;37.782;2022-08-03T02:21:06;13.20;;;10.10;;
33421;SDS011;19763;55.798;37.782;2022-08-03T02:23:35;10.45;;;9.38;;
33421;SDS011;19763;55.798;37.782;2022-08-03T02:26:02;10.38;;;9.18;;
33421;SDS011;19763;55.798;37.782;2022-08-03T02:28:32;9.80;;;8.63;;
33421;SDS011;19763;55.798;37.782;2022-08-03T02:31:01;14.55;;;9.25;;
33421;SDS011;19763;55.798;37.782;2022-08-03T02:33:35;10.60;;;9.00;;
33421;SDS011;19763;55.798;37.782;2022-08-03T02:36:05;10.32;;;8.30;;
33421;SDS011;19763;55.798;37.782;2022-08-03T02:38:33;11.98;;;9.60;;
33421;SDS011;19763;55.798;37.782;2022-08-03T02:41:04;13.55;;;10.70;;
33421;SDS011;19763;55.798;37.782;2022-08-03T02:43:34;12.15;;;10.15;;
33421;SDS011;19763;55.798;37.782;2022-08-03T02:46:01;14.73;;;9.60;;
33421;SDS011;19763;55.798;37.782;2022-08-03T02:48:29;12.50;;;9.30;;
33421;SDS011;19763;55.798;37.782;2022-08-03T02:50:59;10.25;;;9.07;;
33421;SDS011;19763;55.798;37.782;2022-08-03T02:53:27;11.43;;;9.25;;
33421;SDS011;19763;55.798;37.782;2022-08-03T02:55:54;17.08;;;10.68;;
33421;SDS011;19763;55.798;37.782;2022-08-03T02:58:20;15.07;;;10.75;;
33421;SDS011;19763;55.798;37.782;2022-08-03T03:00:48;16.15;;;10.10;;
33421;SDS011;19763;55.798;37.782;2022-08-03T03:03:18;17.83;;;10.45;;
33421;SDS011;19763;55.798;37.782;2022-08-03T03:05:46;11.27;;;9.65;;
33421;SDS011;19763;55.798;37.782;2022-08-03T03:08:14;11.93;;;10.10;;
33421;SDS011;19763;55.798;37.782;2022-08-03T03:10:41;13.40;;;9.05;;
33421;SDS011;19763;55.798;37.782;2022-08-03T03:13:08;10.45;;;9.35;;
33421;SDS011;19763;55.798;37.782;2022-08-03T03:15:35;16.45;;;10.18;;
33421;SDS011;19763;55.798;37.782;2022-08-03T03:18:03;10.95;;;9.68;;
33421;SDS011;19763;55.798;37.782;2022-08-03T03:20:30;12.02;;;9.93;;
33421;SDS011;19763;55.798;37.782;2022-08-03T03:23:00;11.43;;;10.10;;
33421;SDS011;19763;55.798;37.782;2022-08-03T03:25:27;14.93;;;10.60;;
33421;SDS011;19763;55.798;37.782;2022-08-03T03:27:55;12.00;;;9.40;;
33421;SDS011;19763;55.798;37.782;2022-08-03T03:30:22;13.00;;;10.77;;
33421;SDS011;19763;55.798;37.782;2022-08-03T03:32:48;10.52;;;9.43;;
33421;SDS011;19763;55.798;37.782;2022-08-03T03:35:14;9.77;;;8.77;;
33421;SDS011;19763;55.798;37.782;2022-08-03T03:37:40;11.50;;;8.85;;
33421;SDS011;19763;55.798;37.782;2022-08-03T03:40:06;17.27;;;9.40;;
33421;SDS011;19763;55.798;37.782;2022-08-03T03:42:33;13.35;;;9.82;;
33421;SDS011;19763;55.798;37.782;2022-08-03T03:45:02;12.63;;;9.32;;
33421;SDS011;19763;55.798;37.782;2022-08-03T03:47:32;10.05;;;9.05;;
33421;SDS011;19763;55.798;37.782;2022-08-03T03:49:58;11.38;;;8.98;;
33421;SDS011;19763;55.798;37.782;2022-08-03T03:52:25;13.05;;;9.02;;
33421;SDS011;19763;55.798;37.782;2022-08-03T03:54:51;10.95;;;8.30;;
33421;SDS011;19763;55.798;37.782;2022-08-03T03:57:16;9.40;;;8.43;;
33421;SDS011;19763;55.798;37.782;2022-08-03T03:59:42;9.57;;;8.13;;
33421;SDS011;19763;55.798;37.782;2022-08-03T04:02:09;10.15;;;8.32;;
33421;SDS011;19763;55.798;37.782;2022-08-03T04:04:36;12.68;;;8.73;;
33421;SDS011;19763;55.798;37.782;2022-08-03T04:07:21;11.13;;;8.82;;
33421;SDS011;19763;55.798;37.782;2022-08-03T04:10:09;11.18;;;8.48;;
33421;SDS011;19763;55.798;37.782;2022-08-03T04:12:59;8.40;;;7.60;;
33421;SDS011;19763;55.798;37.782;2022-08-03T04:15:27;10.68;;;7.80;;
33421;SDS011;19763;55.798;37.782;2022-08-03T04:17:54;16.20;;;8.23;;
33421;SDS011;19763;55.798;37.782;2022-08-03T04:20:23;10.30;;;7.63;;
33421;SDS011;19763;55.798;37.782;2022-08-03T04:22:52;10.45;;;7.30;;
33421;SDS011;19763;55.798;37.782;2022-08-03T04:25:20;8.32;;;7.53;;
33421;SDS011;19763;55.798;37.782;2022-08-03T04:27:50;11.48;;;7.60;;
33421;SDS011;19763;55.798;37.782;2022-08-03T04:30:17;11.73;;;7.60;;
33421;SDS011;19763;55.798;37.782;2022-08-03T04:32:43;9.43;;;8.48;;
33421;SDS011;19763;55.798;37.782;2022-08-03T04:35:16;9.57;;;7.75;;
33421;SDS011;19763;55.798;37.782;2022-08-03T04:37:43;10.77;;;8.15;;
33421;SDS011;19763;55.798;37.782;2022-08-03T04:40:13;10.10;;;7.57;;
33421;SDS011;19763;55.798;37.782;2022-08-03T04:45:14;10.98;;;7.40;;
33421;SDS011;19763;55.798;37.782;2022-08-03T04:47:40;13.00;;;8.13;;
33421;SDS011;19763;55.798;37.782;2022-08-03T04:50:07;10.95;;;8.20;;
33421;SDS011;19763;55.798;37.782;2022-08-03T04:52:33;14.55;;;8.27;;
33421;SDS011;19763;55.798;37.782;2022-08-03T04:54:59;10.85;;;7.55;;
33421;SDS011;19763;55.798;37.782;2022-08-03T04:57:25;17.52;;;8.10;;
33421;SDS011;19763;55.798;37.782;2022-08-03T04:59:51;11.68;;;7.97;;
33421;SDS011;19763;55.798;37.782;2022-08-03T05:02:21;9.05;;;7.82;;
33421;SDS011;19763;55.798;37.782;2022-08-03T05:04:47;11.35;;;8.20;;
33421;SDS011;19763;55.798;37.782;2022-08-03T05:07:14;15.25;;;7.30;;
33421;SDS011;19763;55.798;37.782;2022-08-03T05:09:42;27.45;;;9.05;;
33421;SDS011;19763;55.798;37.782;2022-08-03T05:12:08;10.88;;;7.25;;
33421;SDS011;19763;55.798;37.782;2022-08-03T05:14:34;10.45;;;7.38;;
33421;SDS011;19763;55.798;37.782;2022-08-03T05:17:03;12.70;;;8.00;;
33421;SDS011;19763;55.798;37.782;2022-08-03T05:19:29;10.32;;;7.72;;
33421;SDS011;19763;55.798;37.782;2022-08-03T05:21:55;11.20;;;7.80;;
33421;SDS011;19763;55.798;37.782;2022-08-03T05:24:20;14.65;;;7.85;;
33421;SDS011;19763;55.798;37.782;2022-08-03T05:26:46;9.73;;;7.50;;
33421;SDS011;19763;55.798;37.782;2022-08-03T05:29:12;13.32;;;8.15;;
33421;SDS011;19763;55.798;37.782;2022-08-03T05:31:37;11.75;;;7.00;;
33421;SDS011;19763;55.798;37.782;2022-08-03T05:34:03;10.88;;;7.38;;
33421;SDS011;19763;55.798;37.782;2022-08-03T05:36:28;9.23;;;6.93;;
33421;SDS011;19763;55.798;37.782;2022-08-03T05:38:54;11.95;;;7.47;;
33421;SDS011;19763;55.798;37.782;2022-08-03T05:41:20;8.75;;;6.85;;
33421;SDS011;19763;55.798;37.782;2022-08-03T05:43:45;11.90;;;6.43;;
33421;SDS011;19763;55.798;37.782;2022-08-03T05:46:11;8.73;;;5.93;;
33421;SDS011;19763;55.798;37.782;2022-08-03T05:48:37;10.68;;;7.10;;
33421;SDS011;19763;55.798;37.782;2022-08-03T05:51:03;8.93;;;6.57;;
33421;SDS011;19763;55.798;37.782;2022-08-03T05:53:34;8.48;;;6.20;;
33421;SDS011;19763;55.798;37.782;2022-08-03T05:56:00;7.65;;;5.75;;
33421;SDS011;19763;55.798;37.782;2022-08-03T05:58:26;6.78;;;5.85;;
33421;SDS011;19763;55.798;37.782;2022-08-03T06:00:51;10.05;;;6.15;;
33421;SDS011;19763;55.798;37.782;2022-08-03T06:03:17;9.43;;;6.40;;
33421;SDS011;19763;55.798;37.782;2022-08-03T06:05:42;10.32;;;5.95;;
33421;SDS011;19763;55.798;37.782;2022-08-03T06:08:08;8.63;;;7.05;;
33421;SDS011;19763;55.798;37.782;2022-08-03T06:10:33;8.63;;;5.78;;
33421;SDS011;19763;55.798;37.782;2022-08-03T06:12:59;10.18;;;6.20;;
33421;SDS011;19763;55.798;37.782;2022-08-03T06:15:25;9.90;;;6.43;;
33421;SDS011;19763;55.798;37.782;2022-08-03T06:17:50;8.93;;;6.57;;
33421;SDS011;19763;55.798;37.782;2022-08-03T06:20:17;12.80;;;6.68;;
33421;SDS011;19763;55.798;37.782;2022-08-03T06:22:44;9.65;;;6.07;;
33421;SDS011;19763;55.798;37.782;2022-08-03T06:25:10;6.80;;;5.43;;
33421;SDS011;19763;55.798;37.782;2022-08-03T06:27:36;6.40;;;5.60;;
33421;SDS011;19763;55.798;37.782;2022-08-03T06:30:05;8.23;;;5.90;;
33421;SDS011;19763;55.798;37.782;2022-08-03T06:32:38;8.13;;;5.83;;
33421;SDS011;19763;55.798;37.782;2022-08-03T06:35:05;7.38;;;5.28;;
33421;SDS011;19763;55.798;37.782;2022-08-03T06:37:40;6.95;;;4.88;;
33421;SDS011;19763;55.798;37.782;2022-08-03T06:40:13;7.82;;;4.78;;
33421;SDS011;19763;55.798;37.782;2022-08-03T06:42:43;8.18;;;5.72;;
33421;SDS011;19763;55.798;37.782;2022-08-03T06:45:09;8.07;;;4.75;;
33421;SDS011;19763;55.798;37.782;2022-08-03T06:47:36;7.28;;;5.07;;
33421;SDS011;19763;55.798;37.782;2022-08-03T06:50:03;5.10;;;4.47;;
33421;SDS011;19763;55.798;37.782;2022-08-03T06:52:31;5.63;;;4.50;;
33421;SDS011;19763;55.798;37.782;2022-08-03T06:54:57;8.73;;;4.18;;
33421;SDS011;19763;55.798;37.782;2022-08-03T06:57:23;9.35;;;4.60;;
33421;SDS011;19763;55.798;37.782;2022-08-03T06:59:49;6.55;;;4.78;;
33421;SDS011;19763;55.798;37.782;2022-08-03T07:02:14;6.32;;;4.30;;
33421;SDS011;19763;55.798;37.782;2022-08-03T07:04:40;5.18;;;4.63;;
33421;SDS011;19763;55.798;37.782;2022-08-03T07:07:06;5.70;;;4.57;;
33421;SDS011;19763;55.798;37.782;2022-08-03T07:09:31;7.03;;;4.07;;
33421;SDS011;19763;55.798;37.782;2022-08-03T07:11:57;10.13;;;4.43;;
33421;SDS011;19763;55.798;37.782;2022-08-03T07:14:23;12.90;;;5.03;;
33421;SDS011;19763;55.798;37.782;2022-08-03T07:16:49;6.65;;;4.38;;
33421;SDS011;19763;55.798;37.782;2022-08-03T07:19:14;6.53;;;4.20;;
33421;SDS011;19763;55.798;37.782;2022-08-03T07:21:40;6.78;;;4.57;;
33421;SDS011;19763;55.798;37.782;2022-08-03T07:24:06;5.88;;;4.15;;
33421;SDS011;19763;55.798;37.782;2022-08-03T07:26:31;7.45;;;4.10;;
33421;SDS011;19763;55.798;37.782;2022-08-03T07:28:57;9.15;;;4.78;;
33421;SDS011;19763;55.798;37.782;2022-08-03T07:31:24;8.48;;;4.20;;
33421;SDS011;19763;55.798;37.782;2022-08-03T07:33:50;5.57;;;4.20;;
33421;SDS011;19763;55.798;37.782;2022-08-03T07:36:16;6.43;;;3.70;;
33421;SDS011;19763;55.798;37.782;2022-08-03T07:38:41;7.47;;;3.90;;
33421;SDS011;19763;55.798;37.782;2022-08-03T07:41:07;4.63;;;3.55;;
33421;SDS011;19763;55.798;37.782;2022-08-03T07:43:32;7.60;;;3.45;;
33421;SDS011;19763;55.798;37.782;2022-08-03T07:45:58;3.50;;;3.20;;
33421;SDS011;19763;55.798;37.782;2022-08-03T07:48:24;4.47;;;3.05;;
33421;SDS011;19763;55.798;37.782;2022-08-03T07:50:49;6.55;;;3.20;;
33421;SDS011;19763;55.798;37.782;2022-08-03T07:53:15;4.13;;;3.50;;
33421;SDS011;19763;55.798;37.782;2022-08-03T07:55:41;5.38;;;3.75;;
33421;SDS011;19763;55.798;37.782;2022-08-03T07:58:07;6.80;;;3.53;;
33421;SDS011;19763;55.798;37.782;2022-08-03T08:00:36;5.68;;;3.20;;
33421;SDS011;19763;55.798;37.782;2022-08-03T08:03:03;3.90;;;3.45;;
33421;SDS011;19763;55.798;37.782;2022-08-03T08:05:29;4.00;;;3.60;;
33421;SDS011;19763;55.798;37.782;2022-08-03T08:07:55;4.97;;;3.50;;
33421;SDS011;19763;55.798;37.782;2022-08-03T08:10:21;4.60;;;3.55;;
33421;SDS011;19763;55.798;37.782;2022-08-03T08:12:47;4.43;;;3.20;;
33421;SDS011;19763;55.798;37.782;2022-08-03T08:15:13;4.82;;;3.20;;
33421;SDS011;19763;55.798;37.782;2022-08-03T08:20:32;6.00;;;3.92;;
33421;SDS011;19763;55.798;37.782;2022-08-03T08:23:00;3.55;;;3.25;;
33421;SDS011;19763;55.798;37.782;2022-08-03T08:25:28;3.72;;;3.42;;
33421;SDS011;19763;55.798;37.782;2022-08-03T08:27:55;4.50;;;3.15;;
33421;SDS011;19763;55.798;37.782;2022-08-03T08:30:21;7.50;;;3.85;;
33421;SDS011;19763;55.798;37.782;2022-08-03T08:32:48;4.78;;;3.88;;
33421;SDS011;19763;55.798;37.782;2022-08-03T08:35:14;4.47;;;4.03;;
33421;SDS011;19763;55.798;37.782;2022-08-03T08:37:41;5.38;;;3.58;;
33421;SDS011;19763;55.798;37.782;2022-08-03T08:40:08;4.28;;;3.47;;
33421;SDS011;19763;55.798;37.782;2022-08-03T08:42:36;5.90;;;3.60;;
33421;SDS011;19763;55.798;37.782;2022-08-03T08:45:03;4.93;;;4.32;;
33421;SDS011;19763;55.798;37.782;2022-08-03T08:47:34;4.90;;;4.10;;
33421;SDS011;19763;55.798;37.782;2022-08-03T08:50:02;6.68;;;3.88;;
33421;SDS011;19763;55.798;37.782;2022-08-03T08:52:29;7.75;;;4.13;;
33421;SDS011;19763;55.798;37.782;2022-08-03T08:54:55;4.72;;;3.80;;
33421;SDS011;19763;55.798;37.782;2022-08-03T08:57:30;4.35;;;3.95;;
33421;SDS011;19763;55.798;37.782;2022-08-03T09:00:03;7.53;;;3.90;;
33421;SDS011;19763;55.798;37.782;2022-08-03T09:04:59;5.15;;;4.13;;
33421;SDS011;19763;55.798;37.782;2022-08-03T09:07:26;6.90;;;4.88;;
33421;SDS011;19763;55.798;37.782;2022-08-03T09:09:52;5.82;;;4.07;;
33421;SDS011;19763;55.798;37.782;2022-08-03T09:12:18;4.18;;;3.78;;
33421;SDS011;19763;55.798;37.782;2022-08-03T09:14:44;6.47;;;4.22;;
33421;SDS011;19763;55.798;37.782;2022-08-03T09:17:10;8.35;;;3.55;;
33421;SDS011;19763;55.798;37.782;2022-08-03T09:19:35;4.38;;;3.97;;
33421;SDS011;19763;55.798;37.782;2022-08-03T09:22:11;5.32;;;4.18;;
33421;SDS011;19763;55.798;37.782;2022-08-03T09:24:56;4.50;;;4.10;;
33421;SDS011;19763;55.798;37.782;2022-08-03T09:27:23;6.65;;;4.30;;
33421;SDS011;19763;55.798;37.782;2022-08-03T09:29:49;7.13;;;3.90;;
33421;SDS011;19763;55.798;37.782;2022-08-03T09:32:19;5.78;;;4.13;;
33421;SDS011;19763;55.798;37.782;2022-08-03T09:34:47;5.75;;;3.72;;
33421;SDS011;19763;55.798;37.782;2022-08-03T09:37:15;4.65;;;4.25;;
33421;SDS011;19763;55.798;37.782;2022-08-03T09:39:42;8.20;;;4.30;;
33421;SDS011;19763;55.798;37.782;2022-08-03T09:42:16;4.97;;;4.18;;
33421;SDS011;19763;55.798;37.782;2022-08-03T09:44:43;5.22;;;4.00;;
33421;SDS011;19763;55.798;37.782;2022-08-03T09:47:11;8.73;;;4.25;;
33421;SDS011;19763;55.798;37.782;2022-08-03T09:49:38;7.18;;;3.83;;
33421;SDS011;19763;55.798;37.782;2022-08-03T09:52:12;5.10;;;4.20;;
33421;SDS011;19763;55.798;37.782;2022-08-03T09:54:40;5.72;;;4.28;;
33421;SDS011;19763;55.798;37.782;2022-08-03T09:57:07;4.97;;;4.25;;
33421;SDS011;19763;55.798;37.782;2022-08-03T09:59:33;6.97;;;4.18;;
33421;SDS011;19763;55.798;37.782;2022-08-03T10:01:59;7.85;;;4.20;;
33421;SDS011;19763;55.798;37.782;2022-08-03T10:04:25;4.93;;;4.30;;
33421;SDS011;19763;55.798;37.782;2022-08-03T10:07:02;5.35;;;4.22;;
33421;SDS011;19763;55.798;37.782;2022-08-03T10:09:31;4.97;;;4.45;;
33421;SDS011;19763;55.798;37.782;2022-08-03T10:11:57;4.45;;;3.85;;
33421;SDS011;19763;55.798;37.782;2022-08-03T10:14:31;5.13;;;4.20;;
33421;SDS011;19763;55.798;37.782;2022-08-03T10:16:57;4.40;;;3.95;;
33421;SDS011;19763;55.798;37.782;2022-08-03T10:19:23;8.35;;;4.80;;
33421;SDS011;19763;55.798;37.782;2022-08-03T10:21:52;6.13;;;4.22;;
33421;SDS011;19763;55.798;37.782;2022-08-03T10:24:24;6.05;;;4.10;;
33421;SDS011;19763;55.798;37.782;2022-08-03T10:26:52;7.95;;;3.85;;
33421;SDS011;19763;55.798;37.782;2022-08-03T10:29:25;6.22;;;3.92;;
33421;SDS011;19763;55.798;37.782;2022-08-03T10:31:55;4.97;;;4.00;;
33421;SDS011;19763;55.798;37.782;2022-08-03T10:34:24;8.10;;;4.47;;
33421;SDS011;19763;55.798;37.782;2022-08-03T10:36:55;6.10;;;4.55;;
33421;SDS011;19763;55.798;37.782;2022-08-03T10:39:26;5.47;;;4.38;;
33421;SDS011;19763;55.798;37.782;2022-08-03T10:41:53;4.32;;;3.92;;
33421;SDS011;19763;55.798;37.782;2022-08-03T10:44:23;4.30;;;3.95;;
33421;SDS011;19763;55.798;37.782;2022-08-03T10:46:50;5.95;;;4.43;;
33421;SDS011;19763;55.798;37.782;2022-08-03T10:49:17;8.48;;;4.25;;
33421;SDS011;19763;55.798;37.782;2022-08-03T10:51:44;6.47;;;4.22;;
33421;SDS011;19763;55.798;37.782;2022-08-03T10:57:01;5.32;;;4.10;;
33421;SDS011;19763;55.798;37.782;2022-08-03T11:02:14;6.45;;;3.92;;
33421;SDS011;19763;55.798;37.782;2022-08-03T11:04:40;7.22;;;4.35;;
33421;SDS011;19763;55.798;37.782;2022-08-03T11:09:54;7.33;;;4.00;;
33421;SDS011;19763;55.798;37.782;2022-08-03T11:12:24;8.30;;;3.92;;
33421;SDS011;19763;55.798;37.782;2022-08-03T11:14:50;5.18;;;4.32;;
33421;SDS011;19763;55.798;37.782;2022-08-03T11:17:17;5.55;;;4.25;;
33421;SDS011;19763;55.798;37.782;2022-08-03T11:19:44;7.10;;;4.22;;
33421;SDS011;19763;55.798;37.782;2022-08-03T11:22:11;7.55;;;4.07;;
33421;SDS011;19763;55.798;37.782;2022-08-03T11:32:49;4.80;;;3.80;;
33421;SDS011;19763;55.798;37.782;2022-08-03T11:35:15;5.50;;;4.05;;
33421;SDS011;19763;55.798;37.782;2022-08-03T11:40:51;7.20;;;4.05;;
33421;SDS011;19763;55.798;37.782;2022-08-03T11:45:58;8.85;;;4.65;;
33421;SDS011;19763;55.798;37.782;2022-08-03T11:48:37;4.82;;;4.35;;
33421;SDS011;19763;55.798;37.782;2022-08-03T11:51:21;4.90;;;4.05;;
33421;SDS011;19763;55.798;37.782;2022-08-03T11:56:18;9.07;;;4.63;;
33421;SDS011;19763;55.798;37.782;2022-08-03T11:58:48;8.80;;;4.72;;
33421;SDS011;19763;55.798;37.782;2022-08-03T12:01:16;4.80;;;4.07;;
33421;SDS011;19763;55.798;37.782;2022-08-03T12:03:42;4.60;;;4.20;;
33421;SDS011;19763;55.798;37.782;2022-08-03T12:06:10;5.05;;;3.60;;
33421;SDS011;19763;55.798;37.782;2022-08-03T12:08:37;6.90;;;4.55;;
33421;SDS011;19763;55.798;37.782;2022-08-03T12:11:05;7.05;;;4.50;;
33421;SDS011;19763;55.798;37.782;2022-08-03T12:13:44;5.68;;;4.38;;
33421;SDS011;19763;55.798;37.782;2022-08-03T12:16:21;4.57;;;3.80;;
33421;SDS011;19763;55.798;37.782;2022-08-03T12:19:00;5.50;;;4.25;;
33421;SDS011;19763;55.798;37.782;2022-08-03T12:21:29;7.97;;;4.53;;
33421;SDS011;19763;55.798;37.782;2022-08-03T12:23:56;6.88;;;4.35;;
33421;SDS011;19763;55.798;37.782;2022-08-03T12:26:24;7.50;;;3.83;;
33421;SDS011;19763;55.798;37.782;2022-08-03T12:28:50;6.65;;;4.40;;
33421;SDS011;19763;55.798;37.782;2022-08-03T12:31:16;4.15;;;3.75;;
33421;SDS011;19763;55.798;37.782;2022-08-03T12:34:00;6.30;;;4.05;;
33421;SDS011;19763;55.798;37.782;2022-08-03T12:36:33;6.82;;;4.60;;
33421;SDS011;19763;55.798;37.782;2022-08-03T12:39:00;5.95;;;3.95;;
33421;SDS011;19763;55.798;37.782;2022-08-03T12:43:55;5.85;;;4.07;;
33421;SDS011;19763;55.798;37.782;2022-08-03T12:46:21;4.65;;;4.10;;
33421;SDS011;19763;55.798;37.782;2022-08-03T12:48:57;7.63;;;4.53;;
33421;SDS011;19763;55.798;37.782;2022-08-03T12:51:28;8.98;;;4.53;;
33421;SDS011;19763;55.798;37.782;2022-08-03T12:53:55;6.43;;;4.07;;
33421;SDS011;19763;55.798;37.782;2022-08-03T12:56:22;10.07;;;4.38;;
33421;SDS011;19763;55.798;37.782;2022-08-03T12:58:49;6.38;;;4.47;;
33421;SDS011;19763;55.798;37.782;2022-08-03T13:01:15;5.82;;;4.35;;
33421;SDS011;19763;55.798;37.782;2022-08-03T13:03:50;9.07;;;4.32;;
33421;SDS011;19763;55.798;37.782;2022-08-03T13:06:21;6.13;;;4.20;;
33421;SDS011;19763;55.798;37.782;2022-08-03T13:09:00;6.68;;;4.22;;
33421;SDS011;19763;55.798;37.782;2022-08-03T13:11:27;5.97;;;4.22;;
33421;SDS011;19763;55.798;37.782;2022-08-03T13:13:53;7.00;;;4.50;;
33421;SDS011;19763;55.798;37.782;2022-08-03T13:16:19;5.40;;;4.00;;
33421;SDS011;19763;55.798;37.782;2022-08-03T13:18:46;5.75;;;4.30;;
33421;SDS011;19763;55.798;37.782;2022-08-03T13:21:13;5.97;;;4.30;;
33421;SDS011;19763;55.798;37.782;2022-08-03T13:23:40;8.10;;;4.43;;
33421;SDS011;19763;55.798;37.782;2022-08-03T13:26:07;8.60;;;4.03;;
33421;SDS011;19763;55.798;37.782;2022-08-03T13:28:33;6.78;;;4.40;;
33421;SDS011;19763;55.798;37.782;2022-08-03T13:30:59;5.55;;;4.00;;
33421;SDS011;19763;55.798;37.782;2022-08-03T13:33:25;11.57;;;6.10;;
33421;SDS011;19763;55.798;37.782;2022-08-03T13:35:52;6.32;;;4.10;;
33421;SDS011;19763;55.798;37.782;2022-08-03T13:38:18;8.43;;;4.50;;
33421;SDS011;19763;55.798;37.782;2022-08-03T13:40:43;4.63;;;4.18;;
33421;SDS011;19763;55.798;37.782;2022-08-03T13:43:09;5.68;;;4.90;;
33421;SDS011;19763;55.798;37.782;2022-08-03T13:45:35;10.05;;;4.43;;
33421;SDS011;19763;55.798;37.782;2022-08-03T13:48:00;6.18;;;4.43;;
33421;SDS011;19763;55.798;37.782;2022-08-03T13:50:26;6.38;;;4.30;;
33421;SDS011;19763;55.798;37.782;2022-08-03T13:52:52;6.47;;;4.30;;
33421;SDS011;19763;55.798;37.782;2022-08-03T13:55:17;12.20;;;5.47;;
33421;SDS011;19763;55.798;37.782;2022-08-03T13:57:43;6.38;;;4.53;;
33421;SDS011;19763;55.798;37.782;2022-08-03T14:00:08;6.28;;;4.65;;
33421;SDS011;19763;55.798;37.782;2022-08-03T14:02:35;9.60;;;4.75;;
33421;SDS011;19763;55.798;37.782;2022-08-03T14:05:01;5.10;;;4.57;;
33421;SDS011;19763;55.798;37.782;2022-08-03T14:07:28;8.80;;;4.88;;
33421;SDS011;19763;55.798;37.782;2022-08-03T14:09:54;6.78;;;4.80;;
33421;SDS011;19763;55.798;37.782;2022-08-03T14:12:20;5.80;;;4.97;;
33421;SDS011;19763;55.798;37.782;2022-08-03T14:14:46;7.32;;;5.22;;
33421;SDS011;19763;55.798;37.782;2022-08-03T14:17:12;8.38;;;5.38;;
33421;SDS011;19763;55.798;37.782;2022-08-03T14:19:37;9.10;;;5.78;;
33421;SDS011;19763;55.798;37.782;2022-08-03T14:22:03;8.38;;;5.55;;
33421;SDS011;19763;55.798;37.782;2022-08-03T14:24:28;8.55;;;5.10;;
33421;SDS011;19763;55.798;37.782;2022-08-03T14:26:54;7.78;;;5.00;;
33421;SDS011;19763;55.798;37.782;2022-08-03T14:29:20;10.15;;;5.35;;
33421;SDS011;19763;55.798;37.782;2022-08-03T14:31:45;7.32;;;5.25;;
33421;SDS011;19763;55.798;37.782;2022-08-03T14:34:11;15.07;;;5.20;;
33421;SDS011;19763;55.798;37.782;2022-08-03T14:36:36;9.60;;;5.32;;
33421;SDS011;19763;55.798;37.782;2022-08-03T14:39:02;12.52;;;5.43;;
33421;SDS011;19763;55.798;37.782;2022-08-03T14:41:28;6.18;;;5.40;;
33421;SDS011;19763;55.798;37.782;2022-08-03T14:43:54;6.85;;;5.38;;
33421;SDS011;19763;55.798;37.782;2022-08-03T14:46:21;6.45;;;5.68;;
33421;SDS011;19763;55.798;37.782;2022-08-03T14:48:46;7.88;;;4.97;;
33421;SDS011;19763;55.798;37.782;2022-08-03T14:51:12;12.35;;;5.85;;
33421;SDS011;19763;55.798;37.782;2022-08-03T14:53:38;11.10;;;5.22;;
33421;SDS011;19763;55.798;37.782;2022-08-03T14:56:04;11.65;;;5.85;;
33421;SDS011;19763;55.798;37.782;2022-08-03T14:58:29;7.30;;;5.30;;
33421;SDS011;19763;55.798;37.782;2022-08-03T15:00:56;10.35;;;5.72;;
33421;SDS011;19763;55.798;37.782;2022-08-03T15:03:22;11.88;;;5.57;;
33421;SDS011;19763;55.798;37.782;2022-08-03T15:05:51;9.00;;;5.90;;
33421;SDS011;19763;55.798;37.782;2022-08-03T15:08:18;7.82;;;5.28;;
33421;SDS011;19763;55.798;37.782;2022-08-03T15:10:45;9.20;;;5.55;;
33421;SDS011;19763;55.798;37.782;2022-08-03T15:13:14;7.65;;;5.78;;
33421;SDS011;19763;55.798;37.782;2022-08-03T15:15:40;8.43;;;5.57;;
33421;SDS011;19763;55.798;37.782;2022-08-03T15:18:06;9.00;;;5.93;;